Wilson Cadiz — 8PSY — position and weather

sailwx.info

Track history (hours):
 
Tides and Currents Weather Stations Pressure Air Temp Water Temp Dewpoint Dewpoint Depression Visibility Wind Speed Wind Dir Waves Ship Positions

Wilson Cadiz

Last reported at 2015-Mar-28 10:33 UTC. Time now 2015-Mar-28 11:09 UTC.
Position N 51°24' E 001°54'.

Length 100 m; draft 5.8 m.

Type: Ship. MMSI: 314216000.

Date/timePositionNaut miles runAvg speedWind from/ knotsBaromVisibWave heightAir tempDewpointWater temp
2015-Mar-28 10:33N 51°24' E 001°54'10 9.6
2015-Mar-28 09:33N 51°31' E 002°04'10 9.5
2015-Mar-28 08:33N 51°38' E 002°14'52 9.7
2015-Mar-28 03:14N 52°03' E 003°27'1011.4
2015-Mar-28 02:23N 52°04' E 003°43'910.4
2015-Mar-28 01:33N 52°02' E 003°56'1110.9
2015-Mar-28 00:33N 51°56' E 004°11'3 2.7
2015-Mar-27 23:28N 51°54' E 004°14'0 0.0
2015-Mar-27 22:32N 51°54' E 004°14'0 0.0
2015-Mar-27 21:31N 51°54' E 004°14'0 0.0
2015-Mar-27 20:32N 51°54' E 004°14'0 0.0
2015-Mar-27 19:31N 51°54' E 004°14'0 0.0
2015-Mar-27 18:31N 51°54' E 004°14'0 0.0
2015-Mar-27 17:31N 51°54' E 004°14'0 0.0
2015-Mar-27 16:31N 51°54' E 004°14'0 0.0
2015-Mar-27 15:32N 51°54' E 004°14'0 0.0
2015-Mar-27 14:31N 51°54' E 004°14'0 0.0
2015-Mar-27 13:25N 51°54' E 004°14'0 0.0
2015-Mar-27 12:28N 51°54' E 004°14'0 0.0
2015-Mar-27 11:31N 51°54' E 004°14'0 0.0
2015-Mar-27 10:20N 51°54' E 004°14'0 0.0
2015-Mar-27 09:22N 51°54' E 004°14'0 0.0
2015-Mar-27 08:32N 51°54' E 004°14'0 0.0
2015-Mar-27 07:31N 51°54' E 004°14'0 0.0
2015-Mar-27 06:16N 51°54' E 004°14'0 0.0
2015-Mar-27 05:31N 51°54' E 004°14'0 0.0
2015-Mar-27 04:32N 51°54' E 004°14'0 0.0
2015-Mar-27 03:32N 51°54' E 004°14'0 0.0
2015-Mar-27 02:32N 51°54' E 004°14'0 0.0
2015-Mar-27 01:32N 51°54' E 004°14'0 0.0
2015-Mar-27 00:31N 51°54' E 004°14'0 0.0
2015-Mar-26 23:31N 51°54' E 004°14'0 0.0
2015-Mar-26 22:31N 51°54' E 004°14'1 1.2
2015-Mar-26 21:33N 51°55' E 004°13'1010.1
2015-Mar-26 20:33N 51°60' E 003°59'5713.6
2015-Mar-26 16:25N 51°41' E 002°33'1214.0
2015-Mar-26 15:31N 51°32' E 002°20'1313.1
2015-Mar-26 14:33N 51°21' E 002°10'1212.4
2015-Mar-26 13:34N 51°11' E 001°58'1212.3
2015-Mar-26 12:34N 51°04' E 001°42'1211.6
2015-Mar-26 11:33N 50°55' E 001°30'14510.3
2015-Mar-25 21:32N 50°17' W 002°10'1 1.4
2015-Mar-25 20:32N 50°16' W 002°11'30 7.4
2015-Mar-25 16:33N 50°11' W 002°57'1211.5
2015-Mar-25 15:32N 50°08' W 003°15'19110.6
2015-Mar-24 21:34N 51°27' W 007°49'1313.0
2015-Mar-24 20:33N 51°36' W 008°04'1212.4
2015-Mar-24 19:34N 51°47' W 008°15'5 4.9
2015-Mar-24 18:31N 51°51' W 008°20'0 0.0
2015-Mar-24 17:34N 51°51' W 008°19'0 0.0
2015-Mar-24 16:33N 51°51' W 008°19'0 0.0
2015-Mar-24 15:33N 51°51' W 008°19'0 0.0
2015-Mar-24 14:33N 51°51' W 008°20'0 0.0
2015-Mar-24 13:33N 51°51' W 008°19'0 0.0
2015-Mar-24 12:33N 51°51' W 008°19'0 0.0
2015-Mar-24 11:33N 51°51' W 008°20'0 0.0
2015-Mar-24 10:33N 51°51' W 008°19'0 0.0
2015-Mar-24 09:30N 51°51' W 008°20'0 0.0
2015-Mar-24 08:33N 51°51' W 008°20'0 0.0
2015-Mar-24 07:33N 51°51' W 008°20'0 0.1
2015-Mar-24 06:30N 51°51' W 008°20'0 0.0
2015-Mar-24 05:33N 51°51' W 008°20'0 0.0
2015-Mar-24 04:33N 51°51' W 008°20'0 0.0
2015-Mar-24 03:33N 51°51' W 008°19'0 0.0
2015-Mar-24 02:33N 51°51' W 008°20'0 0.0
2015-Mar-24 01:33N 51°51' W 008°19'0 0.0
2015-Mar-24 00:33N 51°51' W 008°20'0 0.0
2015-Mar-23 23:33N 51°51' W 008°20'0 0.1
2015-Mar-23 22:33N 51°51' W 008°20'0 0.1
2015-Mar-23 21:33N 51°51' W 008°19'0 0.0
2015-Mar-23 20:33N 51°51' W 008°19'0 0.0
2015-Mar-23 19:33N 51°51' W 008°20'0 0.0
2015-Mar-23 18:33N 51°51' W 008°20'0 0.0
2015-Mar-23 17:33N 51°51' W 008°20'0 0.0
2015-Mar-23 16:33N 51°51' W 008°19'0 0.0
2015-Mar-23 15:33N 51°51' W 008°19'0 0.0
2015-Mar-23 14:33N 51°51' W 008°20'0 0.0
2015-Mar-23 13:33N 51°51' W 008°19'0 0.0
2015-Mar-23 12:33N 51°51' W 008°19'0 0.0
2015-Mar-23 11:33N 51°51' W 008°20'0 0.0
2015-Mar-23 10:33N 51°51' W 008°20'0 0.0
2015-Mar-23 09:33N 51°51' W 008°20'0 0.0
2015-Mar-23 08:33N 51°51' W 008°20'0 0.0
2015-Mar-23 07:33N 51°51' W 008°20'0 0.0
2015-Mar-23 06:33N 51°51' W 008°19'0 0.0
2015-Mar-23 05:33N 51°51' W 008°20'0 0.0
2015-Mar-23 04:33N 51°51' W 008°20'0 0.0
2015-Mar-23 03:33N 51°51' W 008°19'0 0.0
2015-Mar-23 02:33N 51°51' W 008°20'0 0.0
2015-Mar-23 01:33N 51°51' W 008°19'0 0.0
2015-Mar-23 00:33N 51°51' W 008°19'0 0.0
2015-Mar-22 23:30N 51°51' W 008°20'0 0.1
2015-Mar-22 22:33N 51°51' W 008°19'0 0.1
2015-Mar-22 21:33N 51°51' W 008°19'0 0.0
2015-Mar-22 20:33N 51°51' W 008°19'0 0.0
2015-Mar-22 19:33N 51°51' W 008°20'0 0.0
2015-Mar-22 18:33N 51°51' W 008°20'0 0.0
2015-Mar-22 17:33N 51°51' W 008°19'0 0.0
2015-Mar-22 16:33N 51°51' W 008°19'0 0.0
2015-Mar-22 15:33N 51°51' W 008°19'0 0.0
2015-Mar-22 14:33N 51°51' W 008°20'0 0.0
2015-Mar-22 13:33N 51°51' W 008°19'0 0.0
2015-Mar-22 12:33N 51°51' W 008°19'0 0.0
2015-Mar-22 11:33N 51°51' W 008°20'0 0.0
2015-Mar-22 10:33N 51°51' W 008°19'0 0.0
2015-Mar-22 09:33N 51°51' W 008°20'0 0.0
2015-Mar-22 08:33N 51°51' W 008°20'0 0.0
2015-Mar-22 07:33N 51°51' W 008°20'0 0.1
2015-Mar-22 06:33N 51°51' W 008°20'0 0.0
2015-Mar-22 05:33N 51°51' W 008°20'0 0.0
2015-Mar-22 04:33N 51°51' W 008°19'0 0.1
2015-Mar-22 03:33N 51°51' W 008°19'0 0.1
2015-Mar-22 02:33N 51°51' W 008°20'0 0.0
2015-Mar-22 01:33N 51°51' W 008°19'0 0.1
2015-Mar-22 00:33N 51°51' W 008°20'0 0.0
2015-Mar-21 23:33N 51°51' W 008°20'0 0.0
2015-Mar-21 22:33N 51°51' W 008°19'0 0.1
2015-Mar-21 21:33N 51°51' W 008°19'0 0.0
2015-Mar-21 20:32N 51°51' W 008°19'0 0.0
2015-Mar-21 19:32N 51°51' W 008°20'0 0.0
2015-Mar-21 18:32N 51°51' W 008°20'0 0.0
2015-Mar-21 17:32N 51°51' W 008°19'0 0.0
2015-Mar-21 16:32N 51°51' W 008°19'0 0.1
2015-Mar-21 15:32N 51°51' W 008°19'0 0.0
2015-Mar-21 14:32N 51°51' W 008°20'0 0.0
2015-Mar-21 13:32N 51°51' W 008°19'0 0.0
2015-Mar-21 12:32N 51°51' W 008°19'0 0.0
2015-Mar-21 11:32N 51°51' W 008°20'0 0.0
2015-Mar-21 10:32N 51°51' W 008°19'0 0.0
2015-Mar-21 09:32N 51°51' W 008°20'0 0.0
2015-Mar-21 08:32N 51°51' W 008°20'0 0.0
2015-Mar-21 07:32N 51°51' W 008°20'0 0.0
2015-Mar-21 06:29N 51°51' W 008°20'0 0.0
2015-Mar-21 05:28N 51°51' W 008°20'0 0.0
2015-Mar-21 04:26N 51°51' W 008°19'0 0.0
2015-Mar-21 03:32N 51°51' W 008°19'0 0.0
2015-Mar-21 02:32N 51°51' W 008°19'0 0.0
2015-Mar-21 01:32N 51°51' W 008°20'0 0.0
2015-Mar-21 00:32N 51°51' W 008°19'0 0.0
2015-Mar-20 23:32N 51°51' W 008°19'0 0.0
2015-Mar-20 22:32N 51°51' W 008°19'0 0.0
2015-Mar-20 21:32N 51°51' W 008°19'0 0.0
2015-Mar-20 20:32N 51°51' W 008°19'0 0.0
2015-Mar-20 19:32N 51°51' W 008°19'0 0.0
2015-Mar-20 18:32N 51°51' W 008°20'0 0.0
2015-Mar-20 17:32N 51°51' W 008°19'0 0.0
2015-Mar-20 16:32N 51°51' W 008°19'0 0.0
2015-Mar-20 15:32N 51°51' W 008°19'0 0.0
2015-Mar-20 14:32N 51°51' W 008°19'0 0.0
2015-Mar-20 13:32N 51°51' W 008°19'0 0.0
2015-Mar-20 12:32N 51°51' W 008°19'0 0.0
2015-Mar-20 11:32N 51°51' W 008°20'0 0.0
2015-Mar-20 10:32N 51°51' W 008°20'0 0.0
2015-Mar-20 09:32N 51°51' W 008°19'0 0.1
2015-Mar-20 08:32N 51°51' W 008°20'0 0.0
2015-Mar-20 07:32N 51°51' W 008°20'0 0.0
2015-Mar-20 06:32N 51°51' W 008°20'0 0.0
2015-Mar-20 05:32N 51°51' W 008°20'0 0.0
2015-Mar-20 04:32N 51°51' W 008°20'0 0.0
2015-Mar-20 03:32N 51°51' W 008°20'0 0.0
2015-Mar-20 02:26N 51°51' W 008°20'0 0.0
2015-Mar-20 01:32N 51°51' W 008°20'0 0.0
2015-Mar-20 00:32N 51°51' W 008°20'0 0.0
2015-Mar-19 23:32N 51°51' W 008°20'0 0.0
2015-Mar-19 22:32N 51°51' W 008°20'0 0.0
2015-Mar-19 21:32N 51°51' W 008°20'0 0.0
2015-Mar-19 20:32N 51°51' W 008°20'4 4.0
2015-Mar-19 19:33N 51°54' W 008°24'2 2.0
2015-Mar-19 18:29N 51°54' W 008°27'0 0.0
2015-Mar-19 17:32N 51°54' W 008°27'0 0.0
2015-Mar-19 16:32N 51°54' W 008°27'0 0.0
2015-Mar-19 15:29N 51°54' W 008°27'0 0.1
2015-Mar-19 14:32N 51°54' W 008°27'0 0.1
2015-Mar-19 13:32N 51°54' W 008°27'0 0.0
2015-Mar-19 12:32N 51°54' W 008°27'0 0.0
2015-Mar-19 11:32N 51°54' W 008°27'0 0.0
2015-Mar-19 10:32N 51°54' W 008°27'0 0.0
2015-Mar-19 09:32N 51°54' W 008°27'0 0.0
2015-Mar-19 08:32N 51°54' W 008°27'0 0.0
2015-Mar-19 07:32N 51°54' W 008°27'0 0.0
2015-Mar-19 06:29N 51°54' W 008°27'0 0.0
2015-Mar-19 05:32N 51°54' W 008°27'0 0.0
2015-Mar-19 04:32N 51°54' W 008°27'0 0.1
2015-Mar-19 03:32N 51°54' W 008°27'0 0.1
2015-Mar-19 02:29N 51°54' W 008°27'0 0.0
2015-Mar-19 01:32N 51°54' W 008°27'0 0.0
2015-Mar-18 23:11N 51°54' W 008°27'0 0.0
2015-Mar-18 22:11N 51°54' W 008°27'0 0.0
2015-Mar-18 20:26N 51°54' W 008°27'0 0.0
2015-Mar-18 19:32N 51°54' W 008°27'0 0.0
2015-Mar-18 18:29N 51°54' W 008°27'0 0.0
2015-Mar-18 17:29N 51°54' W 008°27'0 0.0
2015-Mar-18 16:32N 51°54' W 008°27'0 0.0
2015-Mar-18 15:32N 51°54' W 008°27'0 0.0
2015-Mar-18 14:32N 51°54' W 008°27'0 0.0
2015-Mar-18 13:32N 51°54' W 008°27'0 0.0
2015-Mar-18 12:26N 51°54' W 008°27'0 0.0
2015-Mar-18 11:29N 51°54' W 008°27'  
Track history (hours):
 
Tides and Currents Weather Stations Pressure Air Temp Water Temp Dewpoint Dewpoint Depression Visibility Wind Speed Wind Dir Waves Ship Positions

Wilson Cadiz

Last reported at 2015-Mar-28 10:33 UTC. Time now 2015-Mar-28 11:09 UTC.
Position N 51°24' E 001°54'.

Length 100 m; draft 5.8 m.

Type: Ship. MMSI: 314216000.

Date/timePositionNaut miles runAvg speedWind from/ knotsBaromVisibWave heightAir tempDewpointWater temp
2015-Mar-28 10:33N 51°24' E 001°54'10 9.6
2015-Mar-28 09:33N 51°31' E 002°04'10 9.5
2015-Mar-28 08:33N 51°38' E 002°14'52 9.7
2015-Mar-28 03:14N 52°03' E 003°27'1011.4
2015-Mar-28 02:23N 52°04' E 003°43'910.4
2015-Mar-28 01:33N 52°02' E 003°56'1110.9
2015-Mar-28 00:33N 51°56' E 004°11'3 2.7
2015-Mar-27 23:28N 51°54' E 004°14'0 0.0
2015-Mar-27 22:32N 51°54' E 004°14'0 0.0
2015-Mar-27 21:31N 51°54' E 004°14'0 0.0
2015-Mar-27 20:32N 51°54' E 004°14'0 0.0
2015-Mar-27 19:31N 51°54' E 004°14'0 0.0
2015-Mar-27 18:31N 51°54' E 004°14'0 0.0
2015-Mar-27 17:31N 51°54' E 004°14'0 0.0
2015-Mar-27 16:31N 51°54' E 004°14'0 0.0
2015-Mar-27 15:32N 51°54' E 004°14'0 0.0
2015-Mar-27 14:31N 51°54' E 004°14'0 0.0
2015-Mar-27 13:25N 51°54' E 004°14'0 0.0
2015-Mar-27 12:28N 51°54' E 004°14'0 0.0
2015-Mar-27 11:31N 51°54' E 004°14'0 0.0
2015-Mar-27 10:20N 51°54' E 004°14'0 0.0
2015-Mar-27 09:22N 51°54' E 004°14'0 0.0
2015-Mar-27 08:32N 51°54' E 004°14'0 0.0
2015-Mar-27 07:31N 51°54' E 004°14'0 0.0
2015-Mar-27 06:16N 51°54' E 004°14'0 0.0
2015-Mar-27 05:31N 51°54' E 004°14'0 0.0
2015-Mar-27 04:32N 51°54' E 004°14'0 0.0
2015-Mar-27 03:32N 51°54' E 004°14'0 0.0
2015-Mar-27 02:32N 51°54' E 004°14'0 0.0
2015-Mar-27 01:32N 51°54' E 004°14'0 0.0
2015-Mar-27 00:31N 51°54' E 004°14'0 0.0
2015-Mar-26 23:31N 51°54' E 004°14'0 0.0
2015-Mar-26 22:31N 51°54' E 004°14'1 1.2
2015-Mar-26 21:33N 51°55' E 004°13'1010.1
2015-Mar-26 20:33N 51°60' E 003°59'5713.6
2015-Mar-26 16:25N 51°41' E 002°33'1214.0
2015-Mar-26 15:31N 51°32' E 002°20'1313.1
2015-Mar-26 14:33N 51°21' E 002°10'1212.4
2015-Mar-26 13:34N 51°11' E 001°58'1212.3
2015-Mar-26 12:34N 51°04' E 001°42'1211.6
2015-Mar-26 11:33N 50°55' E 001°30'14510.3
2015-Mar-25 21:32N 50°17' W 002°10'1 1.4
2015-Mar-25 20:32N 50°16' W 002°11'30 7.4
2015-Mar-25 16:33N 50°11' W 002°57'1211.5
2015-Mar-25 15:32N 50°08' W 003°15'19110.6
2015-Mar-24 21:34N 51°27' W 007°49'1313.0
2015-Mar-24 20:33N 51°36' W 008°04'1212.4
2015-Mar-24 19:34N 51°47' W 008°15'5 4.9
2015-Mar-24 18:31N 51°51' W 008°20'0 0.0
2015-Mar-24 17:34N 51°51' W 008°19'0 0.0
2015-Mar-24 16:33N 51°51' W 008°19'0 0.0
2015-Mar-24 15:33N 51°51' W 008°19'0 0.0
2015-Mar-24 14:33N 51°51' W 008°20'0 0.0
2015-Mar-24 13:33N 51°51' W 008°19'0 0.0
2015-Mar-24 12:33N 51°51' W 008°19'0 0.0
2015-Mar-24 11:33N 51°51' W 008°20'0 0.0
2015-Mar-24 10:33N 51°51' W 008°19'0 0.0
2015-Mar-24 09:30N 51°51' W 008°20'0 0.0
2015-Mar-24 08:33N 51°51' W 008°20'0 0.0
2015-Mar-24 07:33N 51°51' W 008°20'0 0.1
2015-Mar-24 06:30N 51°51' W 008°20'0 0.0
2015-Mar-24 05:33N 51°51' W 008°20'0 0.0
2015-Mar-24 04:33N 51°51' W 008°20'0 0.0
2015-Mar-24 03:33N 51°51' W 008°19'0 0.0
2015-Mar-24 02:33N 51°51' W 008°20'0 0.0
2015-Mar-24 01:33N 51°51' W 008°19'0 0.0
2015-Mar-24 00:33N 51°51' W 008°20'0 0.0
2015-Mar-23 23:33N 51°51' W 008°20'0 0.1
2015-Mar-23 22:33N 51°51' W 008°20'0 0.1
2015-Mar-23 21:33N 51°51' W 008°19'0 0.0
2015-Mar-23 20:33N 51°51' W 008°19'0 0.0
2015-Mar-23 19:33N 51°51' W 008°20'0 0.0
2015-Mar-23 18:33N 51°51' W 008°20'0 0.0
2015-Mar-23 17:33N 51°51' W 008°20'0 0.0
2015-Mar-23 16:33N 51°51' W 008°19'0 0.0
2015-Mar-23 15:33N 51°51' W 008°19'0 0.0
2015-Mar-23 14:33N 51°51' W 008°20'0 0.0
2015-Mar-23 13:33N 51°51' W 008°19'0 0.0
2015-Mar-23 12:33N 51°51' W 008°19'0 0.0
2015-Mar-23 11:33N 51°51' W 008°20'0 0.0
2015-Mar-23 10:33N 51°51' W 008°20'0 0.0
2015-Mar-23 09:33N 51°51' W 008°20'0 0.0
2015-Mar-23 08:33N 51°51' W 008°20'0 0.0
2015-Mar-23 07:33N 51°51' W 008°20'0 0.0
2015-Mar-23 06:33N 51°51' W 008°19'0 0.0
2015-Mar-23 05:33N 51°51' W 008°20'0 0.0
2015-Mar-23 04:33N 51°51' W 008°20'0 0.0
2015-Mar-23 03:33N 51°51' W 008°19'0 0.0
2015-Mar-23 02:33N 51°51' W 008°20'0 0.0
2015-Mar-23 01:33N 51°51' W 008°19'0 0.0
2015-Mar-23 00:33N 51°51' W 008°19'0 0.0
2015-Mar-22 23:30N 51°51' W 008°20'0 0.1
2015-Mar-22 22:33N 51°51' W 008°19'0 0.1
2015-Mar-22 21:33N 51°51' W 008°19'0 0.0
2015-Mar-22 20:33N 51°51' W 008°19'0 0.0
2015-Mar-22 19:33N 51°51' W 008°20'0 0.0
2015-Mar-22 18:33N 51°51' W 008°20'0 0.0
2015-Mar-22 17:33N 51°51' W 008°19'0 0.0
2015-Mar-22 16:33N 51°51' W 008°19'0 0.0
2015-Mar-22 15:33N 51°51' W 008°19'0 0.0
2015-Mar-22 14:33N 51°51' W 008°20'0 0.0
2015-Mar-22 13:33N 51°51' W 008°19'0 0.0
2015-Mar-22 12:33N 51°51' W 008°19'0 0.0
2015-Mar-22 11:33N 51°51' W 008°20'0 0.0
2015-Mar-22 10:33N 51°51' W 008°19'0 0.0
2015-Mar-22 09:33N 51°51' W 008°20'0 0.0
2015-Mar-22 08:33N 51°51' W 008°20'0 0.0
2015-Mar-22 07:33N 51°51' W 008°20'0 0.1
2015-Mar-22 06:33N 51°51' W 008°20'0 0.0
2015-Mar-22 05:33N 51°51' W 008°20'0 0.0
2015-Mar-22 04:33N 51°51' W 008°19'0 0.1
2015-Mar-22 03:33N 51°51' W 008°19'0 0.1
2015-Mar-22 02:33N 51°51' W 008°20'0 0.0
2015-Mar-22 01:33N 51°51' W 008°19'0 0.1
2015-Mar-22 00:33N 51°51' W 008°20'0 0.0
2015-Mar-21 23:33N 51°51' W 008°20'0 0.0
2015-Mar-21 22:33N 51°51' W 008°19'0 0.1
2015-Mar-21 21:33N 51°51' W 008°19'0 0.0
2015-Mar-21 20:32N 51°51' W 008°19'0 0.0
2015-Mar-21 19:32N 51°51' W 008°20'0 0.0
2015-Mar-21 18:32N 51°51' W 008°20'0 0.0
2015-Mar-21 17:32N 51°51' W 008°19'0 0.0
2015-Mar-21 16:32N 51°51' W 008°19'0 0.1
2015-Mar-21 15:32N 51°51' W 008°19'0 0.0
2015-Mar-21 14:32N 51°51' W 008°20'0 0.0
2015-Mar-21 13:32N 51°51' W 008°19'0 0.0
2015-Mar-21 12:32N 51°51' W 008°19'0 0.0
2015-Mar-21 11:32N 51°51' W 008°20'0 0.0
2015-Mar-21 10:32N 51°51' W 008°19'0 0.0
2015-Mar-21 09:32N 51°51' W 008°20'0 0.0
2015-Mar-21 08:32N 51°51' W 008°20'0 0.0
2015-Mar-21 07:32N 51°51' W 008°20'0 0.0
2015-Mar-21 06:29N 51°51' W 008°20'0 0.0
2015-Mar-21 05:28N 51°51' W 008°20'0 0.0
2015-Mar-21 04:26N 51°51' W 008°19'0 0.0
2015-Mar-21 03:32N 51°51' W 008°19'0 0.0
2015-Mar-21 02:32N 51°51' W 008°19'0 0.0
2015-Mar-21 01:32N 51°51' W 008°20'0 0.0
2015-Mar-21 00:32N 51°51' W 008°19'0 0.0
2015-Mar-20 23:32N 51°51' W 008°19'0 0.0
2015-Mar-20 22:32N 51°51' W 008°19'0 0.0
2015-Mar-20 21:32N 51°51' W 008°19'0 0.0
2015-Mar-20 20:32N 51°51' W 008°19'0 0.0
2015-Mar-20 19:32N 51°51' W 008°19'0 0.0
2015-Mar-20 18:32N 51°51' W 008°20'0 0.0
2015-Mar-20 17:32N 51°51' W 008°19'0 0.0
2015-Mar-20 16:32N 51°51' W 008°19'0 0.0
2015-Mar-20 15:32N 51°51' W 008°19'0 0.0
2015-Mar-20 14:32N 51°51' W 008°19'0 0.0
2015-Mar-20 13:32N 51°51' W 008°19'0 0.0
2015-Mar-20 12:32N 51°51' W 008°19'0 0.0
2015-Mar-20 11:32N 51°51' W 008°20'0 0.0
2015-Mar-20 10:32N 51°51' W 008°20'0 0.0
2015-Mar-20 09:32N 51°51' W 008°19'0 0.1
2015-Mar-20 08:32N 51°51' W 008°20'0 0.0
2015-Mar-20 07:32N 51°51' W 008°20'0 0.0
2015-Mar-20 06:32N 51°51' W 008°20'0 0.0
2015-Mar-20 05:32N 51°51' W 008°20'0 0.0
2015-Mar-20 04:32N 51°51' W 008°20'0 0.0
2015-Mar-20 03:32N 51°51' W 008°20'0 0.0
2015-Mar-20 02:26N 51°51' W 008°20'0 0.0
2015-Mar-20 01:32N 51°51' W 008°20'0 0.0
2015-Mar-20 00:32N 51°51' W 008°20'0 0.0
2015-Mar-19 23:32N 51°51' W 008°20'0 0.0
2015-Mar-19 22:32N 51°51' W 008°20'0 0.0
2015-Mar-19 21:32N 51°51' W 008°20'0 0.0
2015-Mar-19 20:32N 51°51' W 008°20'4 4.0
2015-Mar-19 19:33N 51°54' W 008°24'2 2.0
2015-Mar-19 18:29N 51°54' W 008°27'0 0.0
2015-Mar-19 17:32N 51°54' W 008°27'0 0.0
2015-Mar-19 16:32N 51°54' W 008°27'0 0.0
2015-Mar-19 15:29N 51°54' W 008°27'0 0.1
2015-Mar-19 14:32N 51°54' W 008°27'0 0.1
2015-Mar-19 13:32N 51°54' W 008°27'0 0.0
2015-Mar-19 12:32N 51°54' W 008°27'0 0.0
2015-Mar-19 11:32N 51°54' W 008°27'0 0.0
2015-Mar-19 10:32N 51°54' W 008°27'0 0.0
2015-Mar-19 09:32N 51°54' W 008°27'0 0.0
2015-Mar-19 08:32N 51°54' W 008°27'0 0.0
2015-Mar-19 07:32N 51°54' W 008°27'0 0.0
2015-Mar-19 06:29N 51°54' W 008°27'0 0.0
2015-Mar-19 05:32N 51°54' W 008°27'0 0.0
2015-Mar-19 04:32N 51°54' W 008°27'0 0.1
2015-Mar-19 03:32N 51°54' W 008°27'0 0.1
2015-Mar-19 02:29N 51°54' W 008°27'0 0.0
2015-Mar-19 01:32N 51°54' W 008°27'0 0.0
2015-Mar-18 23:11N 51°54' W 008°27'0 0.0
2015-Mar-18 22:11N 51°54' W 008°27'0 0.0
2015-Mar-18 20:26N 51°54' W 008°27'0 0.0
2015-Mar-18 19:32N 51°54' W 008°27'0 0.0
2015-Mar-18 18:29N 51°54' W 008°27'0 0.0
2015-Mar-18 17:29N 51°54' W 008°27'0 0.0
2015-Mar-18 16:32N 51°54' W 008°27'0 0.0
2015-Mar-18 15:32N 51°54' W 008°27'0 0.0
2015-Mar-18 14:32N 51°54' W 008°27'0 0.0
2015-Mar-18 13:32N 51°54' W 008°27'0 0.0
2015-Mar-18 12:26N 51°54' W 008°27'0 0.0
2015-Mar-18 11:29N 51°54' W 008°27'  

Dump ship's entire track history